Time;durP1;ratioP1;P1;durP2;ratioP2;P2;SDS_P1;SDS_P2;PMS_P1;PMS_P2;Temp;Humidity;BMP_temperature;BMP_pressure;BME280_temperature;BME280_humidity;BME280_pressure;Samples;Min_cycle;Max_cycle;Signal;HPM_P1;HPM_P2
2023/03/21 00:02:18;;;;;;;5.27;3.50;;;;;;;;;;5033307;28;20321;-85
2023/03/21 00:04:46;;;;;;;6.77;3.40;;;;;;;;;;5034439;28;20257;-84
2023/03/21 00:07:13;;;;;;;5.73;3.60;;;;;;;;;;5053519;28;20649;-85
2023/03/21 00:09:40;;;;;;;4.40;3.53;;;;;;;;;;5054216;28;20206;-85
2023/03/21 00:12:09;;;;;;;7.13;3.80;;;;;;;;;;5049210;28;20238;-85
2023/03/21 00:14:36;;;;;;;8.03;4.10;;;;;;;;;;5048708;28;20566;-85
2023/03/21 00:17:04;;;;;;;6.53;3.70;;;;;;;;;;5052614;28;20747;-85
2023/03/21 00:19:31;;;;;;;8.20;4.07;;;;;;;;;;5035656;28;20564;-85
2023/03/21 00:22:01;;;;;;;6.33;3.53;;;;;;;;;;5041128;28;20242;-85
2023/03/21 00:24:28;;;;;;;5.40;4.03;;;;;;;;;;5053857;28;20206;-85
2023/03/21 00:26:55;;;;;;;4.53;3.50;;;;;;;;;;5052672;28;20237;-85
2023/03/21 00:29:22;;;;;;;6.30;3.80;;;;;;;;;;5051863;28;20205;-85
2023/03/21 00:31:49;;;;;;;7.63;5.17;;;;;;;;;;5046961;28;20219;-85
2023/03/21 00:34:16;;;;;;;7.60;5.50;;;;;;;;;;5033864;28;20210;-85
2023/03/21 00:36:43;;;;;;;7.00;5.70;;;;;;;;;;5032853;28;20201;-85
2023/03/21 00:39:12;;;;;;;6.00;4.90;;;;;;;;;;5033134;28;20242;-84
2023/03/21 00:41:40;;;;;;;6.43;4.63;;;;;;;;;;5032885;28;20348;-85
2023/03/21 00:44:07;;;;;;;5.87;3.80;;;;;;;;;;5032975;28;20558;-85
2023/03/21 00:46:35;;;;;;;7.77;4.00;;;;;;;;;;5051622;28;20208;-85
2023/03/21 00:49:02;;;;;;;6.73;3.80;;;;;;;;;;5045855;28;20195;-85
2023/03/21 00:51:30;;;;;;;6.07;3.57;;;;;;;;;;5032726;28;20376;-85
2023/03/21 00:53:58;;;;;;;3.60;3.13;;;;;;;;;;5032867;28;20230;-85
2023/03/21 00:56:27;;;;;;;6.90;3.60;;;;;;;;;;5048943;28;20700;-85
2023/03/21 00:58:54;;;;;;;4.20;3.40;;;;;;;;;;5052222;28;20299;-85
2023/03/21 01:01:21;;;;;;;7.13;4.00;;;;;;;;;;5052083;28;20222;-85
2023/03/21 01:04:02;;;;;;;4.00;3.50;;;;;;;;;;5047755;28;20226;-85
2023/03/21 01:06:29;;;;;;;5.43;3.47;;;;;;;;;;5052843;28;20205;-85
2023/03/21 01:08:56;;;;;;;4.93;3.70;;;;;;;;;;5052260;28;20226;-85
2023/03/21 01:11:24;;;;;;;6.07;3.83;;;;;;;;;;5052492;28;20249;-85
2023/03/21 01:13:53;;;;;;;6.07;3.87;;;;;;;;;;5051896;28;20232;-85
2023/03/21 01:16:20;;;;;;;5.67;3.90;;;;;;;;;;5052492;28;20217;-85
2023/03/21 01:18:47;;;;;;;8.03;4.20;;;;;;;;;;5051891;28;20238;-85
2023/03/21 01:21:14;;;;;;;5.17;3.90;;;;;;;;;;5052144;28;20230;-85
2023/03/21 01:23:42;;;;;;;4.33;3.13;;;;;;;;;;5051841;28;20432;-85
2023/03/21 01:26:10;;;;;;;6.37;3.50;;;;;;;;;;5052136;28;20202;-85
2023/03/21 01:28:38;;;;;;;3.97;3.37;;;;;;;;;;5051995;28;20230;-85
2023/03/21 01:31:07;;;;;;;5.43;3.63;;;;;;;;;;5037346;28;20226;-85
2023/03/21 01:33:35;;;;;;;5.93;3.60;;;;;;;;;;5031749;28;20253;-85
2023/03/21 01:36:02;;;;;;;5.20;3.93;;;;;;;;;;5043847;28;20209;-85
2023/03/21 01:38:30;;;;;;;6.40;3.40;;;;;;;;;;5051586;28;20238;-85
2023/03/21 01:40:57;;;;;;;5.47;3.50;;;;;;;;;;5051854;28;20232;-85
2023/03/21 01:43:26;;;;;;;5.10;3.77;;;;;;;;;;5051553;28;20238;-85
2023/03/21 01:46:20;;;;;;;3.77;3.07;;;;;;;;;;5039869;28;20221;-85
2023/03/21 01:48:47;;;;;;;6.33;3.83;;;;;;;;;;5031892;28;20646;-85
2023/03/21 01:51:14;;;;;;;5.93;3.93;;;;;;;;;;5031840;28;20222;-84
2023/03/21 01:53:42;;;;;;;9.10;3.83;;;;;;;;;;5031820;28;20230;-85
2023/03/21 01:56:11;;;;;;;5.87;3.80;;;;;;;;;;5045813;28;20213;-85
2023/03/21 01:58:39;;;;;;;6.17;3.90;;;;;;;;;;5051252;28;20234;-85
2023/03/21 02:01:06;;;;;;;6.33;3.80;;;;;;;;;;5051595;28;20228;-84
2023/03/21 02:03:36;;;;;;;4.03;3.63;;;;;;;;;;5049790;28;20264;-85
2023/03/21 02:06:06;;;;;;;6.07;4.33;;;;;;;;;;5051253;28;20194;-85
2023/03/21 02:08:34;;;;;;;4.63;3.70;;;;;;;;;;5051843;28;20287;-84
2023/03/21 02:11:02;;;;;;;4.63;3.60;;;;;;;;;;5043510;28;20223;-84
2023/03/21 02:13:29;;;;;;;5.60;4.00;;;;;;;;;;5036408;28;20242;-85
2023/03/21 02:15:59;;;;;;;4.63;3.40;;;;;;;;;;5041701;28;20221;-85
2023/03/21 02:18:32;;;;;;;7.03;4.07;;;;;;;;;;5057134;28;20230;-84
2023/03/21 02:21:11;;;;;;;5.87;3.83;;;;;;;;;;5048061;28;20235;-85
2023/03/21 02:23:57;;;;;;;4.77;3.97;;;;;;;;;;5041020;28;20241;-85
2023/03/21 02:26:42;;;;;;;4.77;3.67;;;;;;;;;;5057857;28;20197;-85
2023/03/21 02:29:17;;;;;;;5.33;4.17;;;;;;;;;;5038839;28;20230;-85
2023/03/21 02:31:52;;;;;;;6.93;4.07;;;;;;;;;;5054125;28;20230;-85
2023/03/21 02:34:23;;;;;;;4.97;4.20;;;;;;;;;;5056239;28;20214;-85
2023/03/21 02:37:03;;;;;;;5.80;4.00;;;;;;;;;;5055197;28;20194;-85
2023/03/21 02:39:36;;;;;;;6.40;3.93;;;;;;;;;;5056021;28;20216;-85
2023/03/21 02:42:07;;;;;;;5.93;4.37;;;;;;;;;;5053809;28;20343;-85
2023/03/21 02:44:40;;;;;;;8.03;4.03;;;;;;;;;;5043904;28;20206;-85
2023/03/21 02:47:09;;;;;;;5.53;4.50;;;;;;;;;;5054939;28;20260;-85
2023/03/21 02:49:40;;;;;;;6.73;4.57;;;;;;;;;;5035740;28;20202;-85
2023/03/21 02:52:10;;;;;;;4.50;4.07;;;;;;;;;;5034710;28;20238;-85
2023/03/21 02:54:38;;;;;;;6.67;4.07;;;;;;;;;;5045543;28;20206;-85
2023/03/21 02:57:06;;;;;;;7.23;4.57;;;;;;;;;;5054528;28;20236;-85
2023/03/21 02:59:34;;;;;;;5.60;4.80;;;;;;;;;;5055327;28;20222;-85
2023/03/21 03:02:01;;;;;;;9.67;4.87;;;;;;;;;;5054477;28;20241;-85
2023/03/21 03:04:29;;;;;;;6.93;4.67;;;;;;;;;;5055506;28;20209;-85
2023/03/21 03:07:08;;;;;;;7.53;4.53;;;;;;;;;;5054967;28;20237;-85
2023/03/21 03:09:40;;;;;;;7.27;4.73;;;;;;;;;;5037019;28;20682;-84
2023/03/21 03:12:13;;;;;;;5.10;4.37;;;;;;;;;;5034995;28;20239;-84
2023/03/21 03:14:46;;;;;;;6.10;4.37;;;;;;;;;;5036052;28;20194;-85
2023/03/21 03:17:23;;;;;;;6.80;4.30;;;;;;;;;;5039253;28;20238;-83
2023/03/21 03:20:00;;;;;;;5.83;4.40;;;;;;;;;;5041265;28;20234;-84
2023/03/21 03:22:32;;;;;;;6.17;4.80;;;;;;;;;;5039808;28;20239;-85
2023/03/21 03:25:04;;;;;;;5.73;4.20;;;;;;;;;;5040304;28;20190;-85
2023/03/21 03:27:35;;;;;;;6.90;4.50;;;;;;;;;;5039378;28;20293;-85
2023/03/21 03:30:03;;;;;;;7.73;4.57;;;;;;;;;;5040584;28;20231;-85
2023/03/21 03:32:35;;;;;;;5.93;3.80;;;;;;;;;;5039234;28;20238;-84
2023/03/21 03:35:04;;;;;;;4.33;3.87;;;;;;;;;;5039155;28;20264;-85
2023/03/21 03:37:33;;;;;;;9.07;5.00;;;;;;;;;;5049717;28;20241;-85
2023/03/21 03:40:04;;;;;;;5.90;4.23;;;;;;;;;;5058359;28;20236;-85
2023/03/21 03:42:35;;;;;;;7.40;4.80;;;;;;;;;;5072073;28;20238;-85
2023/03/21 03:45:03;;;;;;;9.00;5.47;;;;;;;;;;5072028;28;20674;-84
2023/03/21 03:47:35;;;;;;;8.00;5.00;;;;;;;;;;5071811;28;20230;-85
2023/03/21 03:50:03;;;;;;;9.37;5.43;;;;;;;;;;5071146;28;20201;-85
2023/03/21 03:52:32;;;;;;;12.93;5.43;;;;;;;;;;5071388;28;20240;-85
2023/03/21 03:54:59;;;;;;;6.17;4.27;;;;;;;;;;5058051;28;20261;-85
2023/03/21 03:57:28;;;;;;;7.27;4.30;;;;;;;;;;5043299;28;20273;-85
2023/03/21 03:59:55;;;;;;;5.57;4.00;;;;;;;;;;5053497;28;20233;-84
2023/03/21 04:02:22;;;;;;;9.53;4.33;;;;;;;;;;5053363;28;20246;-85
2023/03/21 04:04:51;;;;;;;5.07;4.20;;;;;;;;;;5039647;28;20206;-84
2023/03/21 04:07:18;;;;;;;6.57;4.40;;;;;;;;;;5033847;28;20256;-85
2023/03/21 04:09:45;;;;;;;9.03;4.97;;;;;;;;;;5042624;28;20202;-84
2023/03/21 04:12:13;;;;;;;7.47;4.80;;;;;;;;;;5053049;28;20248;-84
2023/03/21 04:14:41;;;;;;;9.00;5.17;;;;;;;;;;5046918;28;20213;-84
2023/03/21 04:17:10;;;;;;;5.37;4.47;;;;;;;;;;5045591;28;20238;-85
2023/03/21 04:19:37;;;;;;;7.30;4.83;;;;;;;;;;5053499;28;20218;-85
2023/03/21 04:22:04;;;;;;;7.23;4.97;;;;;;;;;;5032916;28;20691;-85
2023/03/21 04:24:32;;;;;;;6.57;4.87;;;;;;;;;;5033721;28;20232;-85
2023/03/21 04:27:00;;;;;;;6.63;4.37;;;;;;;;;;5033071;28;20305;-85
2023/03/21 04:29:28;;;;;;;5.43;4.70;;;;;;;;;;5035126;28;20210;-85
2023/03/21 04:31:56;;;;;;;8.13;4.47;;;;;;;;;;5053986;28;20576;-85
2023/03/21 04:34:26;;;;;;;6.67;4.63;;;;;;;;;;5053654;28;20225;-85
2023/03/21 04:36:54;;;;;;;5.10;4.50;;;;;;;;;;5042836;28;20237;-85
2023/03/21 04:39:23;;;;;;;5.27;4.40;;;;;;;;;;5050372;28;20305;-85
2023/03/21 04:41:50;;;;;;;5.23;4.73;;;;;;;;;;5052457;28;20631;-85
2023/03/21 04:44:18;;;;;;;6.37;4.37;;;;;;;;;;5037630;28;20205;-85
2023/03/21 04:46:45;;;;;;;7.47;4.40;;;;;;;;;;5032725;28;20867;-86
2023/03/21 04:49:14;;;;;;;10.13;4.77;;;;;;;;;;5043543;28;20209;-85
2023/03/21 04:51:42;;;;;;;6.30;4.70;;;;;;;;;;5038184;28;20226;-85
2023/03/21 04:54:12;;;;;;;6.53;5.00;;;;;;;;;;5033853;28;20594;-85
2023/03/21 04:56:39;;;;;;;6.37;4.57;;;;;;;;;;5032832;28;20678;-86
2023/03/21 04:59:07;;;;;;;4.63;4.03;;;;;;;;;;5040976;28;20218;-85
2023/03/21 05:01:35;;;;;;;5.73;4.67;;;;;;;;;;5051780;28;20222;-85
2023/03/21 05:04:02;;;;;;;5.87;4.43;;;;;;;;;;5051950;28;20214;-84
2023/03/21 05:06:31;;;;;;;8.13;4.93;;;;;;;;;;5052386;28;20210;-85
2023/03/21 05:08:58;;;;;;;6.43;4.80;;;;;;;;;;5052907;28;20209;-86
2023/03/21 05:11:26;;;;;;;6.33;4.80;;;;;;;;;;5052606;28;20226;-86
2023/03/21 05:13:53;;;;;;;6.80;4.33;;;;;;;;;;5051992;28;20237;-86
2023/03/21 05:16:24;;;;;;;6.53;4.53;;;;;;;;;;5052622;28;20221;-86
2023/03/21 05:18:52;;;;;;;7.80;4.50;;;;;;;;;;5051835;28;20230;-86
2023/03/21 05:23:53;;;;;;;5.20;4.27;;;;;;;;;;5067675;28;20298;-84
2023/03/21 05:26:21;;;;;;;6.17;4.77;;;;;;;;;;5063907;28;20275;-84
2023/03/21 05:28:48;;;;;;;5.40;4.87;;;;;;;;;;5051679;28;20236;-84
2023/03/21 05:31:16;;;;;;;7.13;4.50;;;;;;;;;;5051880;28;20208;-84
2023/03/21 05:33:43;;;;;;;7.50;4.60;;;;;;;;;;5031650;28;20254;-84
2023/03/21 05:36:11;;;;;;;6.63;4.73;;;;;;;;;;5032020;28;20207;-84
2023/03/21 05:38:38;;;;;;;7.17;4.93;;;;;;;;;;5031372;28;20242;-84
2023/03/21 05:41:07;;;;;;;7.13;4.90;;;;;;;;;;5031560;28;20249;-84
2023/03/21 05:43:34;;;;;;;5.50;4.80;;;;;;;;;;5031515;28;20238;-84
2023/03/21 05:46:01;;;;;;;5.10;4.50;;;;;;;;;;5033008;28;20667;-83
2023/03/21 05:48:28;;;;;;;6.50;4.97;;;;;;;;;;5031155;28;20238;-83
2023/03/21 05:50:55;;;;;;;8.67;5.23;;;;;;;;;;5031572;28;20213;-83
2023/03/21 05:53:22;;;;;;;9.77;5.43;;;;;;;;;;5036168;28;20581;-83
2023/03/21 05:55:49;;;;;;;7.50;4.80;;;;;;;;;;5051747;28;20861;-83
2023/03/21 05:58:17;;;;;;;6.20;5.60;;;;;;;;;;5051342;28;20229;-83
2023/03/21 06:00:45;;;;;;;7.50;5.70;;;;;;;;;;5051632;28;20218;-83
2023/03/21 06:03:12;;;;;;;13.37;5.57;;;;;;;;;;5051000;28;20245;-83
2023/03/21 06:05:39;;;;;;;8.07;5.30;;;;;;;;;;5051768;28;20214;-83
2023/03/21 06:08:06;;;;;;;7.53;5.60;;;;;;;;;;5050819;28;20234;-83
2023/03/21 06:10:33;;;;;;;9.00;5.30;;;;;;;;;;5067251;28;20212;-84
2023/03/21 06:13:00;;;;;;;9.53;5.27;;;;;;;;;;5070496;28;20244;-83
2023/03/21 06:15:29;;;;;;;7.53;5.30;;;;;;;;;;5071783;28;20215;-83
2023/03/21 06:17:56;;;;;;;10.37;4.87;;;;;;;;;;5046058;28;20605;-84
2023/03/21 06:20:24;;;;;;;7.27;5.33;;;;;;;;;;5031415;28;20222;-82
2023/03/21 06:22:51;;;;;;;8.10;5.20;;;;;;;;;;5030367;28;20702;-82
2023/03/21 06:25:18;;;;;;;7.00;5.17;;;;;;;;;;5031281;28;20210;-87
2023/03/21 06:27:45;;;;;;;7.43;5.33;;;;;;;;;;5030818;28;20300;-84
2023/03/21 06:30:13;;;;;;;11.00;5.27;;;;;;;;;;5031522;28;20427;-84
2023/03/21 06:32:41;;;;;;;7.47;4.80;;;;;;;;;;5030846;28;20242;-84
2023/03/21 06:35:09;;;;;;;7.63;5.40;;;;;;;;;;5031738;28;20217;-84
2023/03/21 06:37:36;;;;;;;7.50;5.00;;;;;;;;;;5030923;28;20926;-84
2023/03/21 06:40:04;;;;;;;5.73;5.13;;;;;;;;;;5031248;28;20631;-84
2023/03/21 06:42:32;;;;;;;5.90;5.23;;;;;;;;;;5030568;28;20759;-84
2023/03/21 06:44:59;;;;;;;7.60;5.50;;;;;;;;;;5041813;28;20285;-83
2023/03/21 06:47:26;;;;;;;6.90;5.00;;;;;;;;;;5050697;28;20233;-84
2023/03/21 06:49:55;;;;;;;7.80;5.63;;;;;;;;;;5051145;28;20206;-84
2023/03/21 06:52:22;;;;;;;6.23;5.43;;;;;;;;;;5064039;28;20241;-83
2023/03/21 06:54:49;;;;;;;6.47;5.07;;;;;;;;;;5071309;28;20200;-85
2023/03/21 06:57:18;;;;;;;10.07;5.67;;;;;;;;;;5065997;28;20253;-88
2023/03/21 06:59:46;;;;;;;10.20;5.43;;;;;;;;;;5050959;28;20267;-84
2023/03/21 07:02:13;;;;;;;7.43;4.60;;;;;;;;;;5054340;28;20328;-84
2023/03/21 07:04:40;;;;;;;5.83;5.23;;;;;;;;;;5055137;28;20194;-83
2023/03/21 07:07:09;;;;;;;5.80;4.53;;;;;;;;;;5054351;28;20230;-83
2023/03/21 07:09:36;;;;;;;5.63;4.47;;;;;;;;;;5055033;28;20189;-83
2023/03/21 07:12:03;;;;;;;5.83;4.73;;;;;;;;;;5054116;28;20248;-82
2023/03/21 07:14:30;;;;;;;8.33;4.70;;;;;;;;;;5054657;28;20575;-83
2023/03/21 07:16:57;;;;;;;5.63;4.53;;;;;;;;;;5059823;28;20275;-82
2023/03/21 07:19:25;;;;;;;5.80;4.60;;;;;;;;;;5054532;28;20221;-82
2023/03/21 07:21:52;;;;;;;7.43;4.57;;;;;;;;;;5052390;28;20316;-82
2023/03/21 07:24:20;;;;;;;5.83;4.60;;;;;;;;;;5057418;28;20555;-82
2023/03/21 07:26:47;;;;;;;7.73;4.67;;;;;;;;;;5059303;28;20212;-82
2023/03/21 07:29:16;;;;;;;5.60;4.47;;;;;;;;;;5057777;28;20206;-84
2023/03/21 07:31:43;;;;;;;6.03;4.33;;;;;;;;;;5052488;28;20279;-83
2023/03/21 07:34:10;;;;;;;8.30;4.20;;;;;;;;;;5053685;28;20214;-84
2023/03/21 07:36:37;;;;;;;7.10;4.33;;;;;;;;;;5061083;28;20210;-83
2023/03/21 07:39:05;;;;;;;7.13;4.57;;;;;;;;;;5059323;28;20224;-82
2023/03/21 07:41:34;;;;;;;5.27;4.10;;;;;;;;;;5064200;28;20553;-84
2023/03/21 07:44:02;;;;;;;6.73;4.30;;;;;;;;;;5073637;28;20236;-83
2023/03/21 07:46:29;;;;;;;6.77;3.77;;;;;;;;;;5073060;28;20197;-84
2023/03/21 07:48:58;;;;;;;7.40;4.10;;;;;;;;;;5072847;28;20201;-83
2023/03/21 07:51:25;;;;;;;5.47;4.17;;;;;;;;;;5056127;28;20819;-83
2023/03/21 07:53:52;;;;;;;4.27;3.87;;;;;;;;;;5031220;28;20231;-83
2023/03/21 07:56:20;;;;;;;9.83;4.13;;;;;;;;;;5033320;28;20191;-82
2023/03/21 07:58:49;;;;;;;4.53;3.67;;;;;;;;;;5050947;28;20773;-83
2023/03/21 08:01:16;;;;;;;8.93;3.97;;;;;;;;;;5058347;28;20316;-83
2023/03/21 08:03:43;;;;;;;8.07;4.00;;;;;;;;;;5055062;28;20242;-82
2023/03/21 08:06:11;;;;;;;5.37;3.83;;;;;;;;;;5065046;28;20228;-82
2023/03/21 08:08:38;;;;;;;5.93;3.37;;;;;;;;;;5062798;28;20237;-82
2023/03/21 08:11:05;;;;;;;7.10;3.47;;;;;;;;;;5072412;28;20194;-83
2023/03/21 08:13:32;;;;;;;8.73;3.93;;;;;;;;;;5071257;28;20328;-82
2023/03/21 08:16:01;;;;;;;5.53;3.53;;;;;;;;;;5072757;28;20740;-82
2023/03/21 08:18:28;;;;;;;6.30;4.20;;;;;;;;;;5060256;28;20229;-82
2023/03/21 08:20:56;;;;;;;4.80;3.60;;;;;;;;;;5062322;28;20214;-82
2023/03/21 08:23:23;;;;;;;6.90;3.53;;;;;;;;;;5051723;28;20234;-82
2023/03/21 08:25:52;;;;;;;6.47;3.30;;;;;;;;;;5052182;28;20216;-83
2023/03/21 08:28:19;;;;;;;10.23;3.10;;;;;;;;;;5054298;28;20650;-83
2023/03/21 08:30:46;;;;;;;5.73;3.10;;;;;;;;;;5062859;28;20215;-83
2023/03/21 08:33:16;;;;;;;3.97;3.07;;;;;;;;;;5051774;28;20248;-83
2023/03/21 08:35:43;;;;;;;4.50;3.00;;;;;;;;;;5052521;28;20230;-85
2023/03/21 08:38:11;;;;;;;3.50;2.73;;;;;;;;;;5051825;28;20234;-83
2023/03/21 08:40:38;;;;;;;5.57;3.40;;;;;;;;;;5045529;28;20242;-82
2023/03/21 08:43:05;;;;;;;5.97;3.33;;;;;;;;;;5035221;28;20245;-82
2023/03/21 08:45:32;;;;;;;5.20;2.57;;;;;;;;;;5051956;28;20190;-83
2023/03/21 08:47:59;;;;;;;5.23;2.97;;;;;;;;;;5051621;28;20256;-84
2023/03/21 08:50:30;;;;;;;3.43;2.90;;;;;;;;;;5057765;28;20567;-84
2023/03/21 08:52:57;;;;;;;6.33;2.93;;;;;;;;;;5068666;28;20291;-85
2023/03/21 08:55:25;;;;;;;4.80;3.03;;;;;;;;;;5051955;28;20685;-83
2023/03/21 08:57:52;;;;;;;5.43;3.50;;;;;;;;;;5051164;28;20234;-83
2023/03/21 09:00:21;;;;;;;5.23;3.00;;;;;;;;;;5051878;28;20249;-84
2023/03/21 09:02:50;;;;;;;4.60;2.67;;;;;;;;;;5050806;28;20283;-83
2023/03/21 09:05:17;;;;;;;6.17;3.27;;;;;;;;;;5057359;28;20198;-83
2023/03/21 09:07:46;;;;;;;5.10;3.20;;;;;;;;;;5055924;28;20234;-82
2023/03/21 09:10:14;;;;;;;5.93;3.40;;;;;;;;;;5051722;28;20190;-82
2023/03/21 09:12:41;;;;;;;5.23;3.03;;;;;;;;;;5050642;28;20234;-82
2023/03/21 09:15:09;;;;;;;5.93;3.33;;;;;;;;;;5050397;28;20202;-82
2023/03/21 09:17:38;;;;;;;7.33;3.00;;;;;;;;;;5049469;28;20229;-82
2023/03/21 09:20:10;;;;;;;5.80;2.87;;;;;;;;;;5050298;28;20597;-81
2023/03/21 09:22:37;;;;;;;5.63;3.10;;;;;;;;;;5050096;28;20321;-83
2023/03/21 09:25:07;;;;;;;6.03;3.27;;;;;;;;;;5050288;28;20213;-83
2023/03/21 09:27:34;;;;;;;5.27;2.87;;;;;;;;;;5050635;28;20241;-83
2023/03/21 09:30:01;;;;;;;5.20;3.00;;;;;;;;;;5051106;28;20205;-84
2023/03/21 09:32:28;;;;;;;6.23;3.00;;;;;;;;;;5050042;28;20233;-84
2023/03/21 09:34:56;;;;;;;5.30;3.10;;;;;;;;;;5051347;28;20288;-83
2023/03/21 09:37:23;;;;;;;7.90;2.97;;;;;;;;;;5050693;28;20238;-83
2023/03/21 09:39:51;;;;;;;7.93;3.70;;;;;;;;;;5051352;28;20241;-84
2023/03/21 09:42:29;;;;;;;6.97;3.23;;;;;;;;;;5049954;28;20233;-83
2023/03/21 09:45:04;;;;;;;5.60;3.10;;;;;;;;;;5051133;28;20198;-83
2023/03/21 09:47:33;;;;;;;5.97;3.10;;;;;;;;;;5065600;28;20244;-84
2023/03/21 09:50:02;;;;;;;5.47;2.60;;;;;;;;;;5071264;28;20358;-83
2023/03/21 09:52:33;;;;;;;7.97;3.27;;;;;;;;;;5070086;28;20320;-82
2023/03/21 09:55:00;;;;;;;4.50;2.50;;;;;;;;;;5071384;28;20198;-83
2023/03/21 09:57:32;;;;;;;10.40;3.40;;;;;;;;;;5066800;28;20229;-83
2023/03/21 10:00:10;;;;;;;5.17;3.00;;;;;;;;;;5062640;28;20205;-83
2023/03/21 10:02:38;;;;;;;5.67;3.23;;;;;;;;;;5069682;28;20612;-83
2023/03/21 10:05:13;;;;;;;6.17;3.43;;;;;;;;;;5070703;28;20209;-83
2023/03/21 10:07:41;;;;;;;4.43;3.20;;;;;;;;;;5069780;28;20235;-83
2023/03/21 10:10:14;;;;;;;6.10;3.30;;;;;;;;;;5070768;28;20687;-83
2023/03/21 10:12:44;;;;;;;5.37;2.70;;;;;;;;;;5069651;28;20286;-83
2023/03/21 10:15:13;;;;;;;5.97;3.03;;;;;;;;;;5070866;28;20202;-84
2023/03/21 10:17:42;;;;;;;4.57;2.70;;;;;;;;;;5069779;28;20233;-83
2023/03/21 10:20:13;;;;;;;7.20;2.97;;;;;;;;;;5070516;28;20627;-83
2023/03/21 10:22:40;;;;;;;4.40;2.70;;;;;;;;;;5061626;28;20253;-83
2023/03/21 10:25:08;;;;;;;7.53;3.13;;;;;;;;;;5030989;28;20207;-83
2023/03/21 10:27:36;;;;;;;5.23;3.00;;;;;;;;;;5036320;28;20714;-83
2023/03/21 10:30:06;;;;;;;4.40;2.60;;;;;;;;;;5061126;28;20232;-83
2023/03/21 10:32:34;;;;;;;4.23;2.70;;;;;;;;;;5068925;28;20241;-84
2023/03/21 10:35:03;;;;;;;4.80;2.93;;;;;;;;;;5064685;28;20210;-83
2023/03/21 10:37:31;;;;;;;3.60;2.70;;;;;;;;;;5065105;28;20305;-83
2023/03/21 10:39:58;;;;;;;5.77;2.90;;;;;;;;;;5054782;28;20205;-84
2023/03/21 10:42:26;;;;;;;3.57;2.77;;;;;;;;;;5053237;28;20249;-83
2023/03/21 10:44:55;;;;;;;6.17;3.00;;;;;;;;;;5054584;28;20210;-83
2023/03/21 10:47:25;;;;;;;7.17;3.00;;;;;;;;;;5053486;28;20229;-82
2023/03/21 10:49:52;;;;;;;5.07;3.20;;;;;;;;;;5054106;28;20660;-83
2023/03/21 10:52:20;;;;;;;5.63;3.20;;;;;;;;;;5053274;28;20233;-83
2023/03/21 10:54:48;;;;;;;7.50;3.23;;;;;;;;;;5045910;28;20207;-85
2023/03/21 10:57:16;;;;;;;6.47;3.30;;;;;;;;;;5034339;28;20239;-84
2023/03/21 10:59:46;;;;;;;5.17;3.40;;;;;;;;;;5056589;28;20209;-84
2023/03/21 11:02:18;;;;;;;4.33;3.20;;;;;;;;;;5069485;28;20323;-84
2023/03/21 11:04:47;;;;;;;5.17;2.93;;;;;;;;;;5074002;28;20213;-83
2023/03/21 11:07:18;;;;;;;5.07;3.30;;;;;;;;;;5073731;28;20233;-83
2023/03/21 11:09:46;;;;;;;3.73;2.73;;;;;;;;;;5065363;28;20213;-83
2023/03/21 11:12:15;;;;;;;7.47;3.40;;;;;;;;;;5051494;28;20742;-84
2023/03/21 11:14:42;;;;;;;5.63;3.10;;;;;;;;;;5055621;28;20198;-83
2023/03/21 11:17:24;;;;;;;6.60;3.43;;;;;;;;;;5053297;28;20237;-84
2023/03/21 11:19:54;;;;;;;4.47;3.10;;;;;;;;;;5053605;28;20198;-84
2023/03/21 11:22:21;;;;;;;4.43;3.10;;;;;;;;;;5052440;28;20238;-85
2023/03/21 11:24:51;;;;;;;6.10;3.67;;;;;;;;;;5053723;28;20236;-85
2023/03/21 11:27:18;;;;;;;6.07;3.60;;;;;;;;;;5051229;28;20706;-84
2023/03/21 11:29:47;;;;;;;5.57;3.33;;;;;;;;;;5053098;28;20216;-84
2023/03/21 11:32:15;;;;;;;6.30;3.27;;;;;;;;;;5052304;28;20698;-85
2023/03/21 11:34:45;;;;;;;5.00;3.40;;;;;;;;;;5054120;28;20210;-87
2023/03/21 11:37:20;;;;;;;5.53;3.20;;;;;;;;;;5053101;28;20237;-87
2023/03/21 11:39:47;;;;;;;5.23;3.17;;;;;;;;;;5053376;28;20642;-86
2023/03/21 11:42:27;;;;;;;6.20;3.60;;;;;;;;;;5032250;28;20899;-86
2023/03/21 11:44:58;;;;;;;6.93;3.60;;;;;;;;;;5033369;28;20199;-86
2023/03/21 11:47:26;;;;;;;5.43;3.77;;;;;;;;;;5032189;28;20237;-87
2023/03/21 11:49:55;;;;;;;8.60;3.90;;;;;;;;;;5033761;28;20574;-86
2023/03/21 11:52:29;;;;;;;11.97;5.13;;;;;;;;;;5039763;28;20241;-87
2023/03/21 11:55:06;;;;;;;7.63;4.43;;;;;;;;;;5072953;28;20200;-86
2023/03/21 11:57:36;;;;;;;5.87;4.60;;;;;;;;;;5073221;28;20236;-86
2023/03/21 12:00:09;;;;;;;6.73;3.37;;;;;;;;;;5073781;28;20263;-86
2023/03/21 12:02:55;;;;;;;6.27;3.43;;;;;;;;;;5055332;28;20252;-87
2023/03/21 12:05:27;;;;;;;3.83;3.10;;;;;;;;;;5068628;28;20197;-87
2023/03/21 12:08:00;;;;;;;4.77;3.10;;;;;;;;;;5072497;28;20233;-87
2023/03/21 12:10:32;;;;;;;4.50;2.80;;;;;;;;;;5072546;28;20543;-86
2023/03/21 12:13:04;;;;;;;6.17;3.30;;;;;;;;;;5071973;28;20241;-86
2023/03/21 12:15:36;;;;;;;4.50;3.10;;;;;;;;;;5057395;28;20680;-86
2023/03/21 12:18:07;;;;;;;5.53;3.13;;;;;;;;;;5052485;28;20229;-86
2023/03/21 12:20:38;;;;;;;6.20;3.43;;;;;;;;;;5052684;28;20187;-86
2023/03/21 12:23:23;;;;;;;5.67;3.63;;;;;;;;;;5051927;28;20671;-87
2023/03/21 12:25:55;;;;;;;4.07;2.93;;;;;;;;;;5052756;28;20217;-86
2023/03/21 12:28:28;;;;;;;4.73;2.90;;;;;;;;;;5052024;28;20236;-86
2023/03/21 12:31:01;;;;;;;5.73;3.20;;;;;;;;;;5052180;28;20269;-86
2023/03/21 12:33:37;;;;;;;5.70;2.87;;;;;;;;;;5051967;28;20336;-86
2023/03/21 12:36:17;;;;;;;4.20;2.90;;;;;;;;;;5070671;28;20237;-86
2023/03/21 12:38:47;;;;;;;5.40;3.17;;;;;;;;;;5072179;28;20237;-86
2023/03/21 12:41:22;;;;;;;4.60;3.30;;;;;;;;;;5071637;28;20209;-86
2023/03/21 12:43:53;;;;;;;9.80;3.47;;;;;;;;;;5071748;28;20232;-85
2023/03/21 12:46:23;;;;;;;4.33;3.20;;;;;;;;;;5072231;28;20201;-86
2023/03/21 12:48:52;;;;;;;4.60;3.07;;;;;;;;;;5071752;28;20240;-86
2023/03/21 12:51:21;;;;;;;4.87;3.37;;;;;;;;;;5071723;28;20220;-86
2023/03/21 12:53:54;;;;;;;8.93;3.30;;;;;;;;;;5071543;28;20712;-86
2023/03/21 12:56:25;;;;;;;6.93;3.70;;;;;;;;;;5053529;28;20218;-86
2023/03/21 12:58:55;;;;;;;5.67;3.47;;;;;;;;;;5051123;28;20241;-86
2023/03/21 13:01:23;;;;;;;6.73;3.50;;;;;;;;;;5051984;28;20218;-86
2023/03/21 13:03:52;;;;;;;6.83;3.50;;;;;;;;;;5051480;28;20234;-86
2023/03/21 13:06:21;;;;;;;6.73;3.80;;;;;;;;;;5069304;28;20221;-85
2023/03/21 13:08:50;;;;;;;6.07;4.10;;;;;;;;;;5071537;28;20739;-86
2023/03/21 13:11:19;;;;;;;7.87;4.37;;;;;;;;;;5071259;28;20687;-86
2023/03/21 13:13:51;;;;;;;6.27;4.10;;;;;;;;;;5070852;28;20237;-86
2023/03/21 13:16:21;;;;;;;6.53;4.23;;;;;;;;;;5071707;28;20193;-85
2023/03/21 13:18:53;;;;;;;5.77;3.90;;;;;;;;;;5071564;28;20240;-85
2023/03/21 13:21:24;;;;;;;5.03;4.33;;;;;;;;;;5071468;28;20266;-86
2023/03/21 13:24:02;;;;;;;7.43;4.60;;;;;;;;;;5071251;28;20326;-86
2023/03/21 13:26:33;;;;;;;7.40;4.50;;;;;;;;;;5070507;28;20680;-86
2023/03/21 13:29:01;;;;;;;7.90;4.70;;;;;;;;;;5052116;28;20693;-86
2023/03/21 13:31:29;;;;;;;7.80;4.40;;;;;;;;;;5050189;28;20198;-86
2023/03/21 13:33:59;;;;;;;7.77;3.97;;;;;;;;;;5045460;28;20417;-86
2023/03/21 13:36:28;;;;;;;5.30;4.27;;;;;;;;;;5047398;28;20288;-86
2023/03/21 13:39:00;;;;;;;6.20;4.10;;;;;;;;;;5051397;28;20316;-87
2023/03/21 13:41:31;;;;;;;7.60;4.23;;;;;;;;;;5050543;28;20229;-86
2023/03/21 13:44:09;;;;;;;8.80;4.10;;;;;;;;;;5051054;28;20253;-86
2023/03/21 13:46:37;;;;;;;5.93;4.30;;;;;;;;;;5050882;28;20244;-86
2023/03/21 13:49:14;;;;;;;5.07;4.13;;;;;;;;;;5051249;28;20210;-86
2023/03/21 13:51:46;;;;;;;7.40;4.90;;;;;;;;;;5050369;28;20226;-86
2023/03/21 13:54:23;;;;;;;7.13;4.63;;;;;;;;;;5051519;28;20185;-86
2023/03/21 13:56:51;;;;;;;5.50;3.80;;;;;;;;;;5067457;28;20232;-87
2023/03/21 13:59:36;;;;;;;3.93;3.53;;;;;;;;;;5071548;28;20206;-87
2023/03/21 14:02:08;;;;;;;7.33;4.17;;;;;;;;;;5069983;28;20260;-87
2023/03/21 14:04:35;;;;;;;5.53;3.73;;;;;;;;;;5071533;28;20332;-85
2023/03/21 14:07:05;;;;;;;5.97;4.10;;;;;;;;;;5070320;28;20229;-85
2023/03/21 14:09:35;;;;;;;3.77;3.27;;;;;;;;;;5070613;28;20211;-87
2023/03/21 14:12:03;;;;;;;5.63;4.13;;;;;;;;;;5069698;28;20248;-87
2023/03/21 14:14:34;;;;;;;8.77;5.00;;;;;;;;;;5071419;28;20189;-87
2023/03/21 14:17:01;;;;;;;9.60;5.83;;;;;;;;;;5053808;28;20688;-87
2023/03/21 14:19:32;;;;;;;8.10;5.50;;;;;;;;;;5050607;28;20878;-86
2023/03/21 14:21:59;;;;;;;7.70;5.43;;;;;;;;;;5049553;28;20229;-86
2023/03/21 14:24:26;;;;;;;8.20;5.83;;;;;;;;;;5051526;28;20214;-86
2023/03/21 14:26:54;;;;;;;6.47;3.87;;;;;;;;;;5049885;28;20229;-87
2023/03/21 14:29:25;;;;;;;4.83;3.63;;;;;;;;;;5050528;28;20238;-86
2023/03/21 14:31:55;;;;;;;5.37;3.57;;;;;;;;;;5049352;28;20240;-86
2023/03/21 14:34:22;;;;;;;4.37;3.50;;;;;;;;;;5051616;28;20214;-85
2023/03/21 14:36:50;;;;;;;4.63;3.53;;;;;;;;;;5050362;28;20230;-85
2023/03/21 14:39:18;;;;;;;6.33;3.33;;;;;;;;;;5051066;28;20662;-85
2023/03/21 14:41:47;;;;;;;6.10;3.90;;;;;;;;;;5049409;28;20283;-86
2023/03/21 14:44:16;;;;;;;10.30;4.27;;;;;;;;;;5050624;28;20676;-85
2023/03/21 14:46:43;;;;;;;4.87;3.97;;;;;;;;;;5050373;28;20201;-86
2023/03/21 14:49:13;;;;;;;4.47;4.03;;;;;;;;;;5050719;28;20336;-85
2023/03/21 14:51:41;;;;;;;4.77;4.10;;;;;;;;;;5047780;28;20187;-85
2023/03/21 14:54:12;;;;;;;6.07;3.70;;;;;;;;;;5050834;28;20206;-84
2023/03/21 14:56:39;;;;;;;6.77;4.23;;;;;;;;;;5049259;28;20210;-84
2023/03/21 14:59:08;;;;;;;6.50;4.27;;;;;;;;;;5050823;28;20343;-84